createdAt,value
2023-07-18T00:02:04.223Z,97673.00
2023-07-18T00:04:33.446Z,97664.91
2023-07-18T00:07:01.075Z,97669.16
2023-07-18T00:09:28.674Z,97663.88
2023-07-18T00:11:56.212Z,97663.88
2023-07-18T00:14:23.793Z,97663.25
2023-07-18T00:16:51.353Z,97672.53
2023-07-18T00:19:19.301Z,97665.22
2023-07-18T00:21:48.194Z,97662.19
2023-07-18T00:24:15.816Z,97670.53
2023-07-18T00:26:43.390Z,97663.38
2023-07-18T00:29:10.960Z,97663.56
2023-07-18T00:31:38.548Z,97655.97
2023-07-18T00:34:06.206Z,97665.63
2023-07-18T00:36:33.769Z,97664.34
2023-07-18T00:39:03.107Z,97664.94
2023-07-18T00:41:30.684Z,97661.94
2023-07-18T00:43:58.235Z,97658.09
2023-07-18T00:46:26.010Z,97656.72
2023-07-18T00:48:53.643Z,97656.16
2023-07-18T00:51:22.462Z,97663.28
2023-07-18T00:53:50.080Z,97661.13
2023-07-18T00:56:19.034Z,97667.47
2023-07-18T00:58:46.742Z,97672.78
2023-07-18T01:01:14.461Z,97663.88
2023-07-18T01:03:42.305Z,97667.16
2023-07-18T01:06:10.746Z,97664.16
2023-07-18T01:08:38.688Z,97659.09
2023-07-18T01:11:06.958Z,97659.72
2023-07-18T01:13:36.163Z,97660.97
2023-07-18T01:16:04.580Z,97655.56
2023-07-18T01:18:32.280Z,97652.63
2023-07-18T01:21:02.335Z,97662.75
2023-07-18T01:23:31.256Z,97652.81
2023-07-18T01:25:58.800Z,97658.22
2023-07-18T01:28:26.481Z,97647.72
2023-07-18T01:30:54.072Z,97648.78
2023-07-18T01:33:21.965Z,97652.91
2023-07-18T01:35:49.519Z,97645.00
2023-07-18T01:38:17.090Z,97649.34
2023-07-18T01:40:46.200Z,97642.59
2023-07-18T01:43:13.754Z,97637.69
2023-07-18T01:45:41.329Z,97635.00
2023-07-18T01:48:08.979Z,97636.19
2023-07-18T01:50:36.618Z,97648.06
2023-07-18T01:53:04.230Z,97640.00
2023-07-18T01:55:31.844Z,97634.88
2023-07-18T01:58:01.152Z,97626.16
2023-07-18T02:00:28.899Z,97629.00
2023-07-18T02:02:56.557Z,97639.41
2023-07-18T02:05:25.644Z,97638.25
2023-07-18T02:07:54.213Z,97631.09
2023-07-18T02:10:22.894Z,97620.28
2023-07-18T02:12:52.807Z,97625.66
2023-07-18T02:15:23.135Z,97631.00
2023-07-18T02:17:51.219Z,97619.38
2023-07-18T02:20:19.003Z,97625.19
2023-07-18T02:22:47.107Z,97628.50
2023-07-18T02:25:15.222Z,97628.63
2023-07-18T02:27:42.866Z,97625.50
2023-07-18T02:30:12.394Z,97616.06
2023-07-18T02:32:43.259Z,97632.34
2023-07-18T02:35:13.361Z,97632.72
2023-07-18T02:37:40.913Z,97635.09
2023-07-18T02:40:09.009Z,97632.47
2023-07-18T02:42:36.895Z,97631.78
2023-07-18T02:45:05.595Z,97629.03
2023-07-18T02:47:33.249Z,97635.63
2023-07-18T02:50:02.291Z,97630.06
2023-07-18T02:52:29.844Z,97634.09
2023-07-18T02:54:57.378Z,97626.88
2023-07-18T02:57:25.165Z,97630.06
2023-07-18T02:59:52.806Z,97625.84
2023-07-18T03:02:20.420Z,97634.53
2023-07-18T03:04:48.158Z,97621.78
2023-07-18T03:07:17.213Z,97621.44
2023-07-18T03:09:44.938Z,97625.25
2023-07-18T03:12:12.587Z,97635.25
2023-07-18T03:14:40.771Z,97627.88
2023-07-18T03:17:08.482Z,97627.34
2023-07-18T03:19:36.164Z,97633.63
2023-07-18T03:22:03.867Z,97630.38
2023-07-18T03:24:34.772Z,97631.25
2023-07-18T03:27:02.342Z,97632.66
2023-07-18T03:29:30.044Z,97628.72
2023-07-18T03:31:57.702Z,97628.06
2023-07-18T03:34:25.582Z,97624.81
2023-07-18T03:36:53.187Z,97623.97
2023-07-18T03:39:20.746Z,97626.13
2023-07-18T03:41:49.662Z,97630.69
2023-07-18T03:44:17.245Z,97627.53
2023-07-18T03:46:44.919Z,97613.50
2023-07-18T03:49:12.579Z,97625.16
2023-07-18T03:51:40.175Z,97626.34
2023-07-18T03:54:07.772Z,97632.94
2023-07-18T03:56:35.951Z,97626.34
2023-07-18T03:59:04.862Z,97621.31
2023-07-18T04:01:32.530Z,97617.28
2023-07-18T04:04:00.203Z,97617.41
2023-07-18T04:06:27.857Z,97629.06
2023-07-18T04:08:55.473Z,97631.34
2023-07-18T04:11:23.144Z,97632.09
2023-07-18T04:13:50.847Z,97630.13
2023-07-18T04:16:19.862Z,97626.78
2023-07-18T04:18:47.984Z,97627.13
2023-07-18T04:21:15.632Z,97622.47
2023-07-18T04:23:43.203Z,97618.66
2023-07-18T04:26:10.948Z,97628.88
2023-07-18T04:28:38.580Z,97626.63
2023-07-18T04:31:07.162Z,97623.38
2023-07-18T04:33:38.467Z,97618.19
2023-07-18T04:36:07.840Z,97626.31
2023-07-18T04:38:36.031Z,97624.22
2023-07-18T04:41:03.604Z,97621.31
2023-07-18T04:43:31.539Z,97622.84
2023-07-18T04:45:59.181Z,97623.22
2023-07-18T04:48:27.303Z,97634.44
2023-07-18T04:50:59.709Z,97628.94
2023-07-18T04:53:27.810Z,97619.72
2023-07-18T04:55:56.354Z,97622.63
2023-07-18T04:58:25.926Z,97621.50
2023-07-18T05:00:53.883Z,97622.22
2023-07-18T05:03:21.775Z,97618.03
2023-07-18T05:05:49.378Z,97614.97
2023-07-18T05:08:19.127Z,97617.28
2023-07-18T05:10:46.748Z,97612.50
2023-07-18T05:13:14.644Z,97615.16
2023-07-18T05:15:42.361Z,97614.09
2023-07-18T05:18:10.064Z,97607.50
2023-07-18T05:20:37.736Z,97619.91
2023-07-18T05:23:05.625Z,97622.09
2023-07-18T05:25:35.200Z,97616.75
2023-07-18T05:28:03.672Z,97617.66
2023-07-18T05:30:31.280Z,97612.94
2023-07-18T05:32:58.884Z,97622.00
2023-07-18T05:35:26.541Z,97620.41
2023-07-18T05:37:54.113Z,97604.06
2023-07-18T05:40:22.752Z,97613.63
2023-07-18T05:42:51.821Z,97617.47
2023-07-18T05:45:19.671Z,97612.41
2023-07-18T05:47:47.302Z,97603.97
2023-07-18T05:50:15.237Z,97600.03
2023-07-18T05:52:42.874Z,97601.63
2023-07-18T05:55:10.966Z,97599.53
2023-07-18T05:57:38.541Z,97587.50
2023-07-18T06:00:08.559Z,97596.59
2023-07-18T06:02:36.224Z,97592.59
2023-07-18T06:05:04.323Z,97592.41
2023-07-18T06:07:31.915Z,97596.00
2023-07-18T06:09:59.782Z,97591.94
2023-07-18T06:12:27.368Z,97590.13
2023-07-18T06:14:54.933Z,97582.56
2023-07-18T06:17:23.924Z,97581.66
2023-07-18T06:19:51.692Z,97577.19
2023-07-18T06:22:19.275Z,97589.41
2023-07-18T06:24:47.180Z,97589.75
2023-07-18T06:27:14.768Z,97583.66
2023-07-18T06:29:42.406Z,97578.91
2023-07-18T06:32:10.160Z,97570.78
2023-07-18T06:34:39.062Z,97565.22
2023-07-18T06:37:08.751Z,97572.19
2023-07-18T06:39:37.741Z,97569.34
2023-07-18T06:42:06.181Z,97576.81
2023-07-18T06:44:33.760Z,97576.16
2023-07-18T06:47:01.544Z,97582.78
2023-07-18T06:49:29.225Z,97581.78
2023-07-18T06:51:58.190Z,97579.94
2023-07-18T06:54:25.753Z,97581.44
2023-07-18T06:56:53.442Z,97580.25
2023-07-18T06:59:21.145Z,97579.28
2023-07-18T07:01:48.747Z,97584.25
2023-07-18T07:04:16.395Z,97580.47
2023-07-18T07:06:44.509Z,97577.50
2023-07-18T07:09:13.771Z,97568.97
2023-07-18T07:11:41.656Z,97559.66
2023-07-18T07:14:09.225Z,97561.25
2023-07-18T07:16:36.925Z,97557.16
2023-07-18T07:19:04.530Z,97553.69
2023-07-18T07:21:32.186Z,97555.00
2023-07-18T07:23:59.789Z,97560.09
2023-07-18T07:26:28.780Z,97558.31
2023-07-18T07:28:56.382Z,97562.84
2023-07-18T07:31:25.145Z,97551.19
2023-07-18T07:33:53.303Z,97545.06
2023-07-18T07:36:20.873Z,97543.25
2023-07-18T07:38:48.451Z,97543.22
2023-07-18T07:41:16.172Z,97532.13
2023-07-18T07:43:45.098Z,97532.00
2023-07-18T07:46:12.857Z,97531.75
2023-07-18T07:48:40.531Z,97518.09
2023-07-18T07:51:08.170Z,97522.78
2023-07-18T07:53:35.759Z,97518.47
2023-07-18T07:56:03.465Z,97519.81
2023-07-18T07:58:31.019Z,97507.31
2023-07-18T08:00:59.940Z,97500.03
2023-07-18T08:03:27.556Z,97495.81
2023-07-18T08:05:55.427Z,97483.03
2023-07-18T08:08:23.018Z,97489.56
2023-07-18T08:10:50.592Z,97496.25
2023-07-18T08:13:18.268Z,97525.19
2023-07-18T08:15:46.066Z,97530.66
2023-07-18T08:18:14.978Z,97527.09
2023-07-18T08:20:42.564Z,97505.75
2023-07-18T08:23:10.177Z,97485.88
2023-07-18T08:25:38.846Z,97463.78
2023-07-18T08:28:06.458Z,97462.13
2023-07-18T08:30:34.030Z,97458.44
2023-07-18T08:33:01.697Z,97445.56
2023-07-18T08:35:30.613Z,97447.00
2023-07-18T08:37:58.162Z,97457.66
2023-07-18T08:40:25.766Z,97468.44
2023-07-18T08:42:53.452Z,97477.31
2023-07-18T08:45:25.943Z,97464.47
2023-07-18T08:47:53.678Z,97463.91
2023-07-18T08:50:22.881Z,97458.28
2023-07-18T08:52:52.253Z,97448.50
2023-07-18T08:55:20.168Z,97441.03
2023-07-18T08:57:48.976Z,97452.44
2023-07-18T09:00:17.250Z,97452.66
2023-07-18T09:02:45.047Z,97445.59
2023-07-18T09:05:28.507Z,97444.84
2023-07-18T09:07:57.951Z,97458.84
2023-07-18T09:10:26.134Z,97460.19
2023-07-18T09:12:54.736Z,97458.41
2023-07-18T09:15:22.481Z,97448.59
2023-07-18T09:17:54.856Z,97452.00
2023-07-18T09:20:24.035Z,97444.69
2023-07-18T09:22:55.074Z,97445.13
2023-07-18T09:25:25.050Z,97432.47
2023-07-18T09:27:53.342Z,97424.00
2023-07-18T09:30:28.716Z,97420.19
2023-07-18T09:32:56.985Z,97419.28
2023-07-18T09:35:27.970Z,97430.63
2023-07-18T09:37:56.747Z,97419.28
2023-07-18T09:40:27.113Z,97407.16
2023-07-18T09:42:56.141Z,97400.84
2023-07-18T09:45:24.994Z,97398.75
2023-07-18T09:47:53.841Z,97402.47
2023-07-18T09:50:21.812Z,97399.81
2023-07-18T09:52:50.707Z,97388.31
2023-07-18T09:55:27.125Z,97379.38
2023-07-18T09:57:56.241Z,97386.16
2023-07-18T10:00:25.225Z,97381.44
2023-07-18T10:02:53.446Z,97391.97
2023-07-18T10:05:21.904Z,97398.31
2023-07-18T10:07:50.443Z,97391.44
2023-07-18T10:10:18.856Z,97393.50
2023-07-18T10:13:01.590Z,97395.16
2023-07-18T10:15:29.779Z,97388.84
2023-07-18T10:18:18.750Z,97403.91
2023-07-18T10:20:59.223Z,97389.00
2023-07-18T10:23:43.493Z,97372.03
2023-07-18T10:26:11.168Z,97382.75
2023-07-18T10:28:48.988Z,97397.16
2023-07-18T10:31:30.750Z,97400.31
2023-07-18T10:34:06.929Z,97396.41
2023-07-18T10:36:35.833Z,97394.56
2023-07-18T10:39:11.132Z,97413.47
2023-07-18T10:41:43.139Z,97402.88
2023-07-18T10:44:15.647Z,97401.44
2023-07-18T10:46:43.905Z,97389.47
2023-07-18T10:49:11.530Z,97393.31
2023-07-18T10:51:39.085Z,97379.53
2023-07-18T10:54:06.697Z,97379.84
2023-07-18T10:56:34.290Z,97393.13
2023-07-18T10:59:03.078Z,97401.16
2023-07-18T11:01:32.116Z,97406.50
2023-07-18T11:04:06.658Z,97413.56
2023-07-18T11:06:34.482Z,97422.53
2023-07-18T11:09:02.469Z,97422.16
2023-07-18T11:11:30.070Z,97425.56
2023-07-18T11:13:57.959Z,97426.03
2023-07-18T11:16:25.619Z,97427.22
2023-07-18T11:18:54.761Z,97428.09
2023-07-18T11:21:23.256Z,97423.75
2023-07-18T11:23:51.384Z,97413.75
2023-07-18T11:26:20.292Z,97392.50
2023-07-18T11:28:51.567Z,97376.69
2023-07-18T11:31:40.443Z,97385.41
2023-07-18T11:34:10.878Z,97377.56
2023-07-18T11:36:41.040Z,97394.88
2023-07-18T11:39:20.031Z,97398.88
2023-07-18T11:41:48.290Z,97403.97
2023-07-18T11:44:25.681Z,97405.66
2023-07-18T11:46:54.385Z,97406.19
2023-07-18T11:49:35.006Z,97386.22
2023-07-18T11:52:03.019Z,97379.88
2023-07-18T11:54:31.029Z,97385.34
2023-07-18T11:56:58.614Z,97382.59
2023-07-18T11:59:26.297Z,97388.97
2023-07-18T12:01:53.912Z,97381.28
2023-07-18T12:04:21.645Z,97367.22
2023-07-18T12:06:50.694Z,97356.06
2023-07-18T12:09:18.384Z,97341.22
2023-07-18T12:11:46.090Z,97337.22
2023-07-18T12:14:13.932Z,97341.59
2023-07-18T12:16:41.672Z,97338.31
2023-07-18T12:19:09.314Z,97335.84
2023-07-18T12:21:36.876Z,97327.41
2023-07-18T12:24:06.601Z,97327.66
2023-07-18T12:26:34.211Z,97328.47
2023-07-18T12:29:01.807Z,97316.56
2023-07-18T12:31:29.699Z,97303.78
2023-07-18T12:33:57.432Z,97276.84
2023-07-18T12:36:25.045Z,97265.88
2023-07-18T12:38:52.672Z,97251.47
2023-07-18T12:41:21.995Z,97251.09
2023-07-18T12:43:49.886Z,97238.75
2023-07-18T12:46:17.581Z,97234.66
2023-07-18T12:51:15.771Z,97204.72
2023-07-18T12:53:43.371Z,97207.97
2023-07-18T12:56:11.158Z,97211.88
2023-07-18T12:58:40.069Z,97210.56
2023-07-18T13:01:07.694Z,97201.81
2023-07-18T13:03:35.457Z,97190.44
2023-07-18T13:06:03.210Z,97193.50
2023-07-18T13:08:30.776Z,97195.25
2023-07-18T13:10:58.488Z,97199.25
2023-07-18T13:13:26.166Z,97195.50
2023-07-18T13:15:55.131Z,97186.28
2023-07-18T13:18:22.767Z,97171.91
2023-07-18T13:20:51.052Z,97163.50
2023-07-18T13:23:18.877Z,97162.50
2023-07-18T13:25:46.575Z,97166.75
2023-07-18T13:28:14.106Z,97184.56
2023-07-18T13:30:42.954Z,97185.09
2023-07-18T13:33:12.043Z,97181.53
2023-07-18T13:35:39.702Z,97155.97
2023-07-18T13:38:07.516Z,97134.75
2023-07-18T13:40:36.491Z,97116.78
2023-07-18T13:43:04.619Z,97145.75
2023-07-18T13:45:32.256Z,97185.09
2023-07-18T13:47:59.923Z,97204.97
2023-07-18T13:50:31.750Z,97191.28
2023-07-18T13:52:59.663Z,97120.22
2023-07-18T13:55:27.432Z,97154.38
2023-07-18T13:57:55.279Z,97207.38
2023-07-18T14:00:22.953Z,97230.34
2023-07-18T14:02:50.710Z,97284.94
2023-07-18T14:05:18.671Z,97270.41
2023-07-18T14:07:47.574Z,97186.78
2023-07-18T14:10:15.191Z,97151.94
2023-07-18T14:12:42.852Z,97133.50
2023-07-18T14:15:11.235Z,97112.94
2023-07-18T14:17:38.803Z,97115.44
2023-07-18T14:20:07.723Z,97128.94
2023-07-18T14:22:35.379Z,97160.44
2023-07-18T14:25:05.321Z,97190.47
2023-07-18T14:27:32.907Z,97229.31
2023-07-18T14:30:00.561Z,97248.91
2023-07-18T14:32:28.299Z,97239.13
2023-07-18T14:34:55.896Z,97243.41
2023-07-18T14:37:23.503Z,97179.88
2023-07-18T14:39:58.800Z,97072.41
2023-07-18T14:42:27.721Z,97108.50
2023-07-18T14:44:55.335Z,97161.59
2023-07-18T14:47:23.000Z,97197.00
2023-07-18T14:49:50.652Z,97222.34
2023-07-18T14:52:18.662Z,97197.31
2023-07-18T14:54:46.298Z,97197.69
2023-07-18T14:57:13.916Z,97245.38
2023-07-18T14:59:42.844Z,97210.59
2023-07-18T15:02:10.525Z,97156.53
2023-07-18T15:04:38.106Z,97184.41
2023-07-18T15:07:05.721Z,97214.69
2023-07-18T15:09:33.372Z,97169.16
2023-07-18T15:12:00.946Z,97145.22
2023-07-18T15:14:28.509Z,97166.41
2023-07-18T15:16:57.485Z,97169.97
2023-07-18T15:19:25.095Z,97179.50
2023-07-18T15:21:52.677Z,97157.72
2023-07-18T15:24:20.332Z,97158.13
2023-07-18T15:26:48.110Z,97138.63
2023-07-18T15:29:15.708Z,97181.75
2023-07-18T15:31:43.407Z,97186.03
2023-07-18T15:34:12.416Z,97183.16
2023-07-18T15:36:39.984Z,97175.06
2023-07-18T15:39:07.619Z,97145.44
2023-07-18T15:41:35.367Z,97144.44
2023-07-18T15:44:02.946Z,97157.25
2023-07-18T15:46:30.671Z,97154.25
2023-07-18T15:48:58.299Z,97157.50
2023-07-18T15:51:28.271Z,97171.28
2023-07-18T15:53:56.121Z,97158.25
2023-07-18T15:56:23.774Z,97150.84
2023-07-18T15:58:51.360Z,97138.16
2023-07-18T16:01:19.005Z,97153.94
2023-07-18T16:03:46.862Z,97154.22
2023-07-18T16:06:14.826Z,97162.00
2023-07-18T16:08:43.870Z,97140.47
2023-07-18T16:11:11.487Z,97107.41
2023-07-18T16:13:39.125Z,97130.03
2023-07-18T16:16:07.452Z,97099.53
2023-07-18T16:18:35.130Z,97091.06
2023-07-18T16:21:02.746Z,97122.97
2023-07-18T16:23:30.349Z,97141.72
2023-07-18T16:25:59.347Z,97143.78
2023-07-18T16:28:26.942Z,97143.25
2023-07-18T16:30:54.550Z,97123.28
2023-07-18T16:33:22.357Z,97119.25
2023-07-18T16:35:50.062Z,97108.28
2023-07-18T16:38:17.620Z,97113.13
2023-07-18T16:40:45.175Z,97115.19
2023-07-18T16:43:14.053Z,97119.91
2023-07-18T16:45:42.711Z,97124.94
2023-07-18T16:48:10.437Z,97135.25
2023-07-18T16:50:38.096Z,97135.88
2023-07-18T16:53:05.643Z,97129.16
2023-07-18T16:55:33.213Z,97099.09
2023-07-18T16:58:00.816Z,97077.47
2023-07-18T17:00:29.923Z,97027.47
2023-07-18T17:02:57.556Z,97026.03
2023-07-18T17:05:25.294Z,97023.63
2023-07-18T17:07:52.870Z,97054.25
2023-07-18T17:10:20.648Z,97091.56
2023-07-18T17:12:48.202Z,97096.44
2023-07-18T17:15:15.756Z,97099.84
2023-07-18T17:17:44.733Z,97095.09
2023-07-18T17:20:14.623Z,97089.38
2023-07-18T17:22:42.471Z,97085.84
2023-07-18T17:25:10.093Z,97078.00
2023-07-18T17:27:37.650Z,97084.06
2023-07-18T17:30:07.649Z,97065.63
2023-07-18T17:32:36.042Z,97067.16
2023-07-18T17:35:05.867Z,97112.16
2023-07-18T17:37:33.446Z,97128.72
2023-07-18T17:40:02.049Z,97098.91
2023-07-18T17:42:30.152Z,97087.94
2023-07-18T17:44:57.754Z,97075.06
2023-07-18T17:47:25.337Z,97059.63
2023-07-18T17:49:52.929Z,97072.59
2023-07-18T17:52:21.856Z,97102.28
2023-07-18T17:54:49.455Z,97085.44
2023-07-18T17:57:17.182Z,97093.91
2023-07-18T17:59:44.878Z,97096.31
2023-07-18T18:02:12.538Z,97088.09
2023-07-18T18:04:40.172Z,97084.19
2023-07-18T18:07:07.808Z,97107.84
2023-07-18T18:09:36.813Z,97105.41
2023-07-18T18:12:04.893Z,97090.00
2023-07-18T18:14:32.468Z,97106.66
2023-07-18T18:17:00.038Z,97105.13
2023-07-18T18:19:27.658Z,97094.22
2023-07-18T18:21:55.409Z,97101.09
2023-07-18T18:24:23.078Z,97099.41
2023-07-18T18:26:52.000Z,97099.81
2023-07-18T18:29:19.583Z,97109.13
2023-07-18T18:31:47.185Z,97105.81
2023-07-18T18:34:14.746Z,97097.09
2023-07-18T18:36:42.378Z,97106.25
2023-07-18T18:39:10.004Z,97108.41
2023-07-18T18:41:37.571Z,97118.59
2023-07-18T18:44:06.596Z,97111.81
2023-07-18T18:46:35.116Z,97123.41
2023-07-18T18:49:06.498Z,97136.13
2023-07-18T18:51:34.513Z,97135.16
2023-07-18T18:54:02.115Z,97132.50
2023-07-18T18:56:29.685Z,97130.44
2023-07-18T18:58:57.258Z,97126.13
2023-07-18T19:01:26.210Z,97125.47
2023-07-18T19:03:53.981Z,97115.22
2023-07-18T19:06:21.703Z,97116.59
2023-07-18T19:08:49.266Z,97104.72
2023-07-18T19:11:16.872Z,97099.63
2023-07-18T19:13:44.441Z,97097.88
2023-07-18T19:16:19.120Z,97108.50
2023-07-18T19:18:57.758Z,97102.19
2023-07-18T19:21:25.294Z,97108.09
2023-07-18T19:23:52.922Z,97117.13
2023-07-18T19:26:20.580Z,97100.16
2023-07-18T19:28:48.268Z,97101.09
2023-07-18T19:31:15.828Z,97113.59
2023-07-18T19:33:43.409Z,97102.03
2023-07-18T19:36:12.375Z,97117.00
2023-07-18T19:38:40.572Z,97127.47
2023-07-18T19:41:08.386Z,97134.00
2023-07-18T19:43:35.955Z,97117.19
2023-07-18T19:46:03.990Z,97117.00
2023-07-18T19:48:31.597Z,97127.72
2023-07-18T19:50:59.253Z,97129.59
2023-07-18T19:53:28.402Z,97144.13
2023-07-18T19:55:56.778Z,97149.66
2023-07-18T19:58:24.468Z,97147.91
2023-07-18T20:00:52.058Z,97147.13
2023-07-18T20:03:19.841Z,97147.66
2023-07-18T20:05:48.518Z,97143.94
2023-07-18T20:08:16.083Z,97146.75
2023-07-18T20:10:45.051Z,97151.41
2023-07-18T20:13:12.598Z,97142.56
2023-07-18T20:15:40.261Z,97153.97
2023-07-18T20:18:07.826Z,97156.75
2023-07-18T20:20:35.584Z,97154.41
2023-07-18T20:23:05.595Z,97151.72
2023-07-18T20:25:33.596Z,97159.53
2023-07-18T20:28:02.534Z,97160.38
2023-07-18T20:30:30.194Z,97156.03
2023-07-18T20:32:57.990Z,97153.97
2023-07-18T20:35:25.790Z,97162.09
2023-07-18T20:37:53.407Z,97162.59
2023-07-18T20:40:21.193Z,97164.97
2023-07-18T20:42:48.784Z,97167.00
2023-07-18T20:45:18.099Z,97175.44
2023-07-18T20:47:45.683Z,97173.56
2023-07-18T20:50:13.334Z,97173.31
2023-07-18T20:52:40.969Z,97171.53
2023-07-18T20:55:08.741Z,97171.41
2023-07-18T20:57:36.360Z,97174.94
2023-07-18T21:00:04.694Z,97181.78
2023-07-18T21:02:33.605Z,97172.50
2023-07-18T21:05:01.215Z,97187.00
2023-07-18T21:07:28.792Z,97187.31
2023-07-18T21:09:57.551Z,97189.97
2023-07-18T21:12:25.189Z,97195.66
2023-07-18T21:14:52.737Z,97197.13
2023-07-18T21:17:20.419Z,97198.13
2023-07-18T21:19:49.292Z,97196.59
2023-07-18T21:22:16.855Z,97202.59
2023-07-18T21:24:44.419Z,97202.59
2023-07-18T21:27:11.998Z,97196.13
2023-07-18T21:29:39.527Z,97204.81
2023-07-18T21:32:08.033Z,97210.03
2023-07-18T21:34:35.625Z,97216.69
2023-07-18T21:37:05.178Z,97218.09
2023-07-18T21:39:32.777Z,97211.22
2023-07-18T21:42:00.374Z,97206.03
2023-07-18T21:44:28.014Z,97216.22
2023-07-18T21:46:55.726Z,97208.00
2023-07-18T21:49:23.353Z,97205.91
2023-07-18T21:51:51.070Z,97217.31
2023-07-18T21:54:20.104Z,97211.56
2023-07-18T21:56:47.766Z,97218.31
2023-07-18T21:59:15.323Z,97224.38
2023-07-18T22:01:42.974Z,97232.28
2023-07-18T22:04:10.582Z,97223.84
2023-07-18T22:06:38.185Z,97227.84
2023-07-18T22:09:08.304Z,97235.84
2023-07-18T22:11:38.257Z,97240.66
2023-07-18T22:14:05.834Z,97237.59
2023-07-18T22:16:33.483Z,97240.94
2023-07-18T22:19:01.115Z,97241.66
2023-07-18T22:21:28.692Z,97238.09
2023-07-18T22:23:56.270Z,97239.50
2023-07-18T22:26:23.874Z,97251.34
2023-07-18T22:28:53.414Z,97255.34
2023-07-18T22:31:21.169Z,97249.78
2023-07-18T22:33:48.986Z,97255.78
2023-07-18T22:36:16.605Z,97257.31
2023-07-18T22:38:44.194Z,97265.81
2023-07-18T22:41:11.861Z,97255.47
2023-07-18T22:43:39.422Z,97253.78
2023-07-18T22:46:08.381Z,97254.59
2023-07-18T22:48:35.977Z,97252.25
2023-07-18T22:51:03.678Z,97256.59
2023-07-18T22:53:32.601Z,97255.84
2023-07-18T22:56:00.183Z,97257.91
2023-07-18T22:58:27.924Z,97253.59
2023-07-18T23:00:55.500Z,97263.94
2023-07-18T23:03:24.506Z,97250.78
2023-07-18T23:05:52.106Z,97252.16
2023-07-18T23:08:19.650Z,97248.75
2023-07-18T23:10:47.243Z,97244.19
2023-07-18T23:13:16.361Z,97245.75
2023-07-18T23:15:44.271Z,97239.16
2023-07-18T23:18:11.898Z,97239.94
2023-07-18T23:20:40.818Z,97249.38
2023-07-18T23:23:08.444Z,97246.94
2023-07-18T23:25:36.159Z,97253.69
2023-07-18T23:28:03.985Z,97249.78
2023-07-18T23:30:31.621Z,97256.84
2023-07-18T23:32:59.204Z,97249.81
2023-07-18T23:35:26.824Z,97257.38
2023-07-18T23:37:56.094Z,97259.63
2023-07-18T23:40:23.676Z,97259.97
2023-07-18T23:42:51.242Z,97260.34
2023-07-18T23:45:18.845Z,97252.31
2023-07-18T23:47:46.544Z,97251.13
2023-07-18T23:50:14.210Z,97255.63
2023-07-18T23:52:41.769Z,97247.53
2023-07-18T23:55:10.790Z,97254.44
2023-07-18T23:57:38.599Z,97239.94
